createdAt,value
2022-10-06T00:00:32.128Z,99985.7
2022-10-06T00:01:32.417Z,99984.7
2022-10-06T00:02:35.185Z,99986.56
2022-10-06T00:03:33.060Z,99982.63
2022-10-06T00:04:33.501Z,99984.7
2022-10-06T00:05:33.901Z,99981.06
2022-10-06T00:06:34.403Z,99977.5
2022-10-06T00:07:35.764Z,99979.62
2022-10-06T00:08:37.689Z,99981.13
2022-10-06T00:09:35.668Z,99984.56
2022-10-06T00:10:36.088Z,99977.86
2022-10-06T00:11:36.571Z,99981.59
2022-10-06T00:12:44.700Z,99974.49
2022-10-06T00:13:42.972Z,99975.3
2022-10-06T00:14:42.488Z,99973.42
2022-10-06T00:15:42.809Z,99976.39
2022-10-06T00:16:43.290Z,99977.12
2022-10-06T00:17:43.610Z,99974.69
2022-10-06T00:18:44.953Z,99970.72
2022-10-06T00:19:44.759Z,99971.05
2022-10-06T00:20:44.962Z,99970.62
2022-10-06T00:21:45.876Z,99967.95
2022-10-06T00:22:48.560Z,99967.25
2022-10-06T00:23:46.509Z,99966.09
2022-10-06T00:24:46.735Z,99965.62
2022-10-06T00:25:47.454Z,99965.09
2022-10-06T00:26:47.560Z,99970.59
2022-10-06T00:27:51.044Z,99962.08
2022-10-06T00:28:49.172Z,99962.34
2022-10-06T00:29:48.907Z,99966.09
2022-10-06T00:30:49.500Z,99966.19
2022-10-06T00:31:49.950Z,99967.06
2022-10-06T00:33:54.251Z,99969.92
2022-10-06T00:34:54.583Z,99964.45
2022-10-06T00:35:59.299Z,99961.28
2022-10-06T00:36:56.700Z,99965.42
2022-10-06T00:37:57.153Z,99965.75
2022-10-06T00:38:57.690Z,99966.66
2022-10-06T00:39:58.186Z,99966.89
2022-10-06T00:40:58.603Z,99969.29
2022-10-06T00:41:59.013Z,99968.09
2022-10-06T00:43:05.499Z,99971.69
2022-10-06T00:44:03.038Z,99969.75
2022-10-06T00:45:06.207Z,99965.92
2022-10-06T00:46:04.347Z,99970.95
2022-10-06T00:47:04.592Z,99965.31
2022-10-06T00:50:12.703Z,99965.55
2022-10-06T00:51:12.390Z,99965.42
2022-10-06T00:52:16.700Z,99966.55
2022-10-06T00:53:15.391Z,99969.16
2022-10-06T00:54:15.284Z,99965.55
2022-10-06T00:55:15.493Z,99967.95
2022-10-06T00:56:15.621Z,99968.36
2022-10-06T00:57:16.416Z,99965.28
2022-10-06T00:58:17.153Z,99961.61
2022-10-06T00:59:19.518Z,99962.95
2022-10-06T01:00:18.606Z,99959.34
2022-10-06T01:01:18.136Z,99961.38
2022-10-06T01:02:31.993Z,99958.98
2022-10-06T01:03:24.553Z,99957.91
2022-10-06T01:04:24.453Z,99952.05
2022-10-06T01:06:26.913Z,99953.91
2022-10-06T01:07:29.505Z,99952.58
2022-10-06T01:08:29.331Z,99949.8
2022-10-06T01:09:29.614Z,99950.28
2022-10-06T01:10:29.210Z,99947.54
2022-10-06T01:11:29.323Z,99947.47
2022-10-06T01:12:31.583Z,99950.11
2022-10-06T01:13:30.871Z,99946.64
2022-10-06T01:14:31.176Z,99947.58
2022-10-06T01:15:31.178Z,99947.27
2022-10-06T01:18:39.595Z,99951.55
2022-10-06T01:22:50.483Z,99951.84
2022-10-06T01:23:48.235Z,99950.64
2022-10-06T01:24:49.473Z,99948.71
2022-10-06T01:25:49.384Z,99952.7
2022-10-06T01:26:51.920Z,99952.91
2022-10-06T01:27:51.643Z,99955.48
2022-10-06T01:28:50.566Z,99950.55
2022-10-06T01:30:54.758Z,99952.02
2022-10-06T01:31:53.307Z,99951.08
2022-10-06T01:32:53.931Z,99947.84
2022-10-06T01:33:55.072Z,99947.94
2022-10-06T01:34:54.560Z,99949.27
2022-10-06T01:35:54.981Z,99950.84
2022-10-06T01:36:55.688Z,99950.98
2022-10-06T01:37:56.009Z,99950.67
2022-10-06T01:38:56.289Z,99947.23
2022-10-06T01:39:57.363Z,99944
2022-10-06T01:40:57.776Z,99942.11
2022-10-06T01:41:58.282Z,99940.57
2022-10-06T01:42:58.713Z,99935.27
2022-10-06T01:43:59.122Z,99935.7
2022-10-06T01:44:59.705Z,99936.37
2022-10-06T01:46:00.092Z,99931.73
2022-10-06T01:47:00.371Z,99937.27
2022-10-06T01:48:00.995Z,99932.3
2022-10-06T01:49:01.202Z,99927.97
2022-10-06T01:50:02.030Z,99928.43
2022-10-06T01:51:02.042Z,99925.59
2022-10-06T01:52:03.381Z,99927.2
2022-10-06T01:53:03.081Z,99924.03
2022-10-06T01:54:03.690Z,99923.56
2022-10-06T01:55:04.830Z,99927.47
2022-10-06T01:56:04.411Z,99926.06
2022-10-06T01:57:08.319Z,99923.8
2022-10-06T01:58:05.861Z,99923.53
2022-10-06T01:59:06.184Z,99925.97
2022-10-06T02:00:08.141Z,99926.43
2022-10-06T02:01:08.873Z,99924.66
2022-10-06T02:02:07.529Z,99925.86
2022-10-06T02:03:08.020Z,99931.83
2022-10-06T02:04:08.413Z,99932.64
2022-10-06T02:05:09.603Z,99927.4
2022-10-06T02:06:09.909Z,99933.94
2022-10-06T02:07:09.733Z,99932.13
2022-10-06T02:08:10.340Z,99929.5
2022-10-06T02:09:10.751Z,99925.5
2022-10-06T02:10:10.855Z,99926.5
2022-10-06T02:11:12.503Z,99924.86
2022-10-06T02:12:11.701Z,99928.7
2022-10-06T02:13:12.208Z,99929.23
2022-10-06T02:14:12.741Z,99925.16
2022-10-06T02:15:13.157Z,99925.5
2022-10-06T02:16:13.629Z,99928.73
2022-10-06T02:17:13.981Z,99924
2022-10-06T02:18:14.514Z,99927.03
2022-10-06T02:19:14.821Z,99925.16
2022-10-06T02:20:15.752Z,99921.86
2022-10-06T02:22:17.600Z,99923.83
2022-10-06T02:23:17.813Z,99923
2022-10-06T02:24:18.120Z,99920.23
2022-10-06T02:25:18.752Z,99925.7
2022-10-06T02:26:19.006Z,99921.5
2022-10-06T02:27:19.273Z,99918
2022-10-06T02:28:19.882Z,99920.73
2022-10-06T02:29:20.421Z,99920.27
2022-10-06T02:30:20.931Z,99919.93
2022-10-06T02:31:21.312Z,99914.96
2022-10-06T02:32:21.670Z,99911.92
2022-10-06T02:33:21.865Z,99911.36
2022-10-06T02:34:22.602Z,99909.33
2022-10-06T02:35:23.012Z,99912.09
2022-10-06T02:36:23.221Z,99909.99
2022-10-06T02:37:23.741Z,99902.99
2022-10-06T02:38:25.360Z,99907.83
2022-10-06T02:39:24.571Z,99903.95
2022-10-06T02:40:25.086Z,99902.49
2022-10-06T02:41:25.711Z,99902.42
2022-10-06T02:42:26.126Z,99897.33
2022-10-06T02:43:26.548Z,99900.98
2022-10-06T02:44:26.758Z,99897.09
2022-10-06T02:45:27.080Z,99899.76
2022-10-06T02:46:27.935Z,99896.36
2022-10-06T02:47:28.019Z,99895.06
2022-10-06T02:48:29.793Z,99891.62
2022-10-06T02:49:28.845Z,99889.45
2022-10-06T02:50:29.358Z,99887.89
2022-10-06T02:51:29.980Z,99886.09
2022-10-06T02:53:34.809Z,99892.05
2022-10-06T02:54:34.503Z,99888.09
2022-10-06T02:55:35.854Z,99888.45
2022-10-06T02:56:35.245Z,99893.45
2022-10-06T02:57:35.630Z,99893.62
2022-10-06T02:58:36.677Z,99890.59
2022-10-06T02:59:36.777Z,99890.39
2022-10-06T03:00:37.001Z,99891.85
2022-10-06T03:01:37.506Z,99889.52
2022-10-06T03:02:38.111Z,99888.69
2022-10-06T03:03:38.863Z,99888.22
2022-10-06T03:04:38.972Z,99887.88
2022-10-06T03:05:39.380Z,99890.25
2022-10-06T03:06:39.592Z,99884.81
2022-10-06T03:07:39.909Z,99883.02
2022-10-06T03:08:40.319Z,99888.55
2022-10-06T03:09:41.120Z,99885.28
2022-10-06T03:10:41.270Z,99885.19
2022-10-06T03:11:43.019Z,99883.22
2022-10-06T03:12:42.293Z,99886.88
2022-10-06T03:13:42.521Z,99880.25
2022-10-06T03:14:43.640Z,99882.28
2022-10-06T03:15:44.103Z,99883.72
2022-10-06T03:16:44.468Z,99879.72
2022-10-06T03:17:48.862Z,99880.25
2022-10-06T03:18:47.347Z,99884.05
2022-10-06T03:19:46.750Z,99879.41
2022-10-06T03:20:47.280Z,99877.34
2022-10-06T03:21:47.880Z,99874.78
2022-10-06T03:22:48.200Z,99873.08
2022-10-06T03:23:50.462Z,99869.78
2022-10-06T03:24:48.927Z,99866.25
2022-10-06T03:26:52.929Z,99871.78
2022-10-06T03:27:53.453Z,99871.52
2022-10-06T03:28:54.901Z,99871.75
2022-10-06T03:29:54.411Z,99869.61
2022-10-06T03:30:54.713Z,99869.71
2022-10-06T03:31:55.230Z,99870.01
2022-10-06T03:32:55.550Z,99867.52
2022-10-06T03:33:56.364Z,99863.01
2022-10-06T03:34:56.487Z,99868.17
2022-10-06T03:37:00.802Z,99870.73
2022-10-06T03:38:01.096Z,99868.98
2022-10-06T03:39:03.152Z,99868.28
2022-10-06T03:40:01.932Z,99868.41
2022-10-06T03:41:07.064Z,99869.61
2022-10-06T03:42:04.521Z,99872.67
2022-10-06T03:43:04.824Z,99870.17
2022-10-06T03:44:05.440Z,99866.08
2022-10-06T03:45:06.470Z,99865.91
2022-10-06T03:46:07.315Z,99864.38
2022-10-06T03:47:06.861Z,99864.24
2022-10-06T03:48:06.858Z,99868.47
2022-10-06T03:49:07.626Z,99868.17
2022-10-06T03:50:08.552Z,99866.57
2022-10-06T03:51:12.138Z,99864.5
2022-10-06T03:52:09.491Z,99866.8
2022-10-06T03:53:10.022Z,99869.87
2022-10-06T03:54:10.702Z,99865.34
2022-10-06T03:55:10.930Z,99864.9
2022-10-06T03:56:14.430Z,99863.83
2022-10-06T03:57:12.591Z,99862.1
2022-10-06T03:58:17.322Z,99863.44
2022-10-06T03:59:15.096Z,99861.38
2022-10-06T04:00:15.372Z,99861.47
2022-10-06T04:01:25.926Z,99860.41
2022-10-06T04:02:19.237Z,99863.42
2022-10-06T04:03:22.251Z,99858.16
2022-10-06T04:04:19.902Z,99860.73
2022-10-06T04:05:20.223Z,99857.03
2022-10-06T04:06:21.046Z,99856.56
2022-10-06T04:07:21.268Z,99847.73
2022-10-06T04:08:21.785Z,99849.5
2022-10-06T04:09:22.500Z,99853.09
2022-10-06T04:10:22.613Z,99853.36
2022-10-06T04:11:25.579Z,99851.69
2022-10-06T04:12:24.048Z,99849.76
2022-10-06T04:13:24.277Z,99851.33
2022-10-06T04:14:25.916Z,99851.33
2022-10-06T04:15:25.306Z,99848.09
2022-10-06T04:16:33.190Z,99844.93
2022-10-06T04:17:30.541Z,99850.76
2022-10-06T04:18:31.868Z,99846.83
2022-10-06T04:19:31.586Z,99849.09
2022-10-06T04:20:32.087Z,99844.03
2022-10-06T04:21:34.781Z,99847.42
2022-10-06T04:22:32.883Z,99843.39
2022-10-06T04:23:33.764Z,99851.62
2022-10-06T04:24:33.904Z,99850.55
2022-10-06T04:25:34.749Z,99852.28
2022-10-06T04:26:37.352Z,99853.35
2022-10-06T04:27:34.912Z,99849.8
2022-10-06T04:28:36.522Z,99853.75
2022-10-06T04:29:35.744Z,99851.09
2022-10-06T04:30:36.155Z,99847.8
2022-10-06T04:31:38.783Z,99848.62
2022-10-06T04:32:37.009Z,99847.66
2022-10-06T04:33:37.721Z,99849.02
2022-10-06T04:34:38.139Z,99846.55
2022-10-06T04:35:38.568Z,99841.75
2022-10-06T04:36:40.047Z,99839.16
2022-10-06T04:37:39.163Z,99840.88
2022-10-06T04:38:39.479Z,99843.28
2022-10-06T04:39:40.007Z,99850.41
2022-10-06T04:40:40.423Z,99851.02
2022-10-06T04:41:42.191Z,99848.75
2022-10-06T04:42:42.073Z,99844.84
2022-10-06T04:43:42.496Z,99846.15
2022-10-06T04:44:43.012Z,99845.74
2022-10-06T04:45:43.136Z,99841.81
2022-10-06T04:46:44.918Z,99844.94
2022-10-06T04:47:44.147Z,99838.5
2022-10-06T04:48:44.681Z,99836.73
2022-10-06T04:49:44.879Z,99835.14
2022-10-06T04:51:45.529Z,99833.84
2022-10-06T04:52:45.815Z,99835.2
2022-10-06T04:53:47.162Z,99834.61
2022-10-06T04:54:46.755Z,99834.27
2022-10-06T04:55:46.973Z,99832.77
2022-10-06T04:56:47.714Z,99832.57
2022-10-06T04:57:48.000Z,99833.67
2022-10-06T04:58:50.669Z,99828.41
2022-10-06T04:59:48.731Z,99833.24
2022-10-06T05:00:49.434Z,99828.34
2022-10-06T05:01:50.314Z,99830.06
2022-10-06T05:02:51.009Z,99830.59
2022-10-06T05:03:53.158Z,99831.69
2022-10-06T05:04:51.435Z,99830.19
2022-10-06T05:05:52.048Z,99825.89
2022-10-06T05:06:52.238Z,99829.05
2022-10-06T05:07:52.884Z,99825.92
2022-10-06T05:09:56.896Z,99818.06
2022-10-06T05:12:01.511Z,99819.89
2022-10-06T05:13:01.831Z,99811.86
2022-10-06T05:14:02.551Z,99813.16
2022-10-06T05:15:02.967Z,99807.67
2022-10-06T05:16:04.368Z,99813.42
2022-10-06T05:17:03.384Z,99806.3
2022-10-06T05:18:04.109Z,99800.84
2022-10-06T05:19:04.215Z,99799.05
2022-10-06T05:20:05.460Z,99799.31
2022-10-06T05:22:09.271Z,99789.52
2022-10-06T05:23:09.842Z,99790.08
2022-10-06T05:24:10.512Z,99791.5
2022-10-06T05:25:10.714Z,99790.7
2022-10-06T05:26:13.274Z,99796.7
2022-10-06T05:27:11.541Z,99793.41
2022-10-06T05:28:12.019Z,99798.97
2022-10-06T05:29:12.473Z,99792.02
2022-10-06T05:30:13.002Z,99799.61
2022-10-06T05:31:20.386Z,99790.55
2022-10-06T05:32:17.820Z,99791.75
2022-10-06T05:33:18.233Z,99788.05
2022-10-06T05:34:18.761Z,99786.12
2022-10-06T05:35:19.072Z,99791.12
2022-10-06T05:36:24.926Z,99794.58
2022-10-06T05:37:22.258Z,99795.08
2022-10-06T05:38:23.470Z,99796.94
2022-10-06T05:39:23.401Z,99800.11
2022-10-06T05:40:23.821Z,99801.27
2022-10-06T05:41:26.599Z,99797.2
2022-10-06T05:42:29.383Z,99797.31
2022-10-06T05:43:27.209Z,99791.55
2022-10-06T05:44:27.730Z,99796.48
2022-10-06T05:45:28.144Z,99797.85
2022-10-06T05:46:32.562Z,99792.38
2022-10-06T05:47:30.019Z,99795.14
2022-10-06T05:48:31.414Z,99798.28
2022-10-06T05:49:30.841Z,99794.05
2022-10-06T05:50:31.355Z,99793.84
2022-10-06T05:51:34.342Z,99794.31
2022-10-06T05:52:32.803Z,99797.58
2022-10-06T05:53:35.014Z,99800.28
2022-10-06T05:54:33.425Z,99798.22
2022-10-06T05:55:34.281Z,99800.62
2022-10-06T05:56:37.339Z,99799.3
2022-10-06T05:57:34.792Z,99800.59
2022-10-06T05:58:37.245Z,99802.22
2022-10-06T05:59:35.633Z,99804.81
2022-10-06T06:00:36.340Z,99801.53
2022-10-06T06:01:41.851Z,99803.75
2022-10-06T06:02:39.500Z,99800.26
2022-10-06T06:03:41.995Z,99800.78
2022-10-06T06:04:40.240Z,99804.92
2022-10-06T06:05:42.015Z,99805.35
2022-10-06T06:06:47.851Z,99801.82
2022-10-06T06:07:45.151Z,99802.48
2022-10-06T06:08:46.834Z,99808.55
2022-10-06T06:09:46.426Z,99806.32
2022-10-06T06:10:46.547Z,99802.75
2022-10-06T06:11:49.012Z,99802.23
2022-10-06T06:12:47.263Z,99805.44
2022-10-06T06:13:47.902Z,99803.8
2022-10-06T06:14:48.213Z,99802.12
2022-10-06T06:15:48.621Z,99806.09
2022-10-06T06:16:49.120Z,99807.56
2022-10-06T06:17:49.665Z,99808.83
2022-10-06T06:18:50.277Z,99809.4
2022-10-06T06:19:50.490Z,99807.63
2022-10-06T06:21:52.135Z,99806.94
2022-10-06T06:22:53.170Z,99808.8
2022-10-06T06:23:52.773Z,99803.14
2022-10-06T06:24:52.978Z,99810.08
2022-10-06T06:26:04.871Z,99804.05
2022-10-06T06:26:57.504Z,99805.01
2022-10-06T06:27:57.856Z,99804.81
2022-10-06T06:29:00.084Z,99808.57
2022-10-06T06:29:59.064Z,99805.45
2022-10-06T06:31:01.286Z,99817.67
2022-10-06T06:31:59.884Z,99813.77
2022-10-06T06:32:59.788Z,99813.61
2022-10-06T06:34:01.536Z,99813.44
2022-10-06T06:35:01.131Z,99811.88
2022-10-06T06:36:01.245Z,99812.88
2022-10-06T06:37:07.461Z,99822.56
2022-10-06T06:38:09.032Z,99818.1
2022-10-06T06:39:11.401Z,99819.03
2022-10-06T06:40:09.365Z,99820.73
2022-10-06T06:41:17.349Z,99821.33
2022-10-06T06:42:09.786Z,99825.89
2022-10-06T06:43:12.346Z,99820.4
2022-10-06T06:44:10.917Z,99822.56
2022-10-06T06:45:11.239Z,99819.59
2022-10-06T06:46:12.643Z,99817.11
2022-10-06T06:47:11.872Z,99816.11
2022-10-06T06:48:15.870Z,99815.11
2022-10-06T06:49:13.412Z,99815.67
2022-10-06T06:50:14.021Z,99808.48
2022-10-06T06:51:14.664Z,99810.64
2022-10-06T06:52:14.761Z,99811.61
2022-10-06T06:53:16.317Z,99811.67
2022-10-06T06:54:16.631Z,99809.55
2022-10-06T06:55:16.316Z,99811.05
2022-10-06T06:56:17.360Z,99813.38
2022-10-06T06:57:16.721Z,99813.25
2022-10-06T06:58:18.803Z,99809.95
2022-10-06T06:59:17.785Z,99807.81
2022-10-06T07:00:18.269Z,99802.72
2022-10-06T07:01:20.843Z,99806.08
2022-10-06T07:02:19.095Z,99799.78
2022-10-06T07:03:52.174Z,99804.68
2022-10-06T07:04:24.161Z,99808.71
2022-10-06T07:05:24.583Z,99804.02
2022-10-06T07:06:28.056Z,99808.17
2022-10-06T07:07:26.031Z,99806.41
2022-10-06T07:08:27.091Z,99805.45
2022-10-06T07:09:27.779Z,99807.67
2022-10-06T07:10:28.038Z,99800.15
2022-10-06T07:11:30.558Z,99798.98
2022-10-06T07:12:28.830Z,99798.86
2022-10-06T07:13:29.031Z,99802.25
2022-10-06T07:14:29.549Z,99796.52
2022-10-06T07:15:29.959Z,99802.25
2022-10-06T07:16:31.613Z,99801.22
2022-10-06T07:17:30.898Z,99798.19
2022-10-06T07:18:31.909Z,99804.05
2022-10-06T07:19:31.834Z,99796.95
2022-10-06T07:20:32.150Z,99799.06
2022-10-06T07:21:32.771Z,99795.69
2022-10-06T07:22:33.901Z,99796.59
2022-10-06T07:23:33.393Z,99794.72
2022-10-06T07:24:33.914Z,99802.75
2022-10-06T07:25:34.444Z,99808.95
2022-10-06T07:26:34.954Z,99805.52
2022-10-06T07:28:39.246Z,99809.02
2022-10-06T07:29:39.593Z,99817.75
2022-10-06T07:30:40.857Z,99809.59
2022-10-06T07:31:40.359Z,99811.52
2022-10-06T07:32:40.891Z,99809.72
2022-10-06T07:33:41.220Z,99813.66
2022-10-06T07:35:41.944Z,99804.48
2022-10-06T07:36:42.596Z,99807.06
2022-10-06T07:37:43.408Z,99811.28
2022-10-06T07:38:43.325Z,99802.48
2022-10-06T07:39:44.161Z,99805.42
2022-10-06T07:40:50.635Z,99803.72
2022-10-06T07:41:46.624Z,99802.45
2022-10-06T07:42:46.935Z,99799.36
2022-10-06T07:43:47.673Z,99801.75
2022-10-06T07:44:48.177Z,99800.92
2022-10-06T07:45:48.379Z,99797.48
2022-10-06T07:46:49.026Z,99799.16
2022-10-06T07:47:49.120Z,99795.26
2022-10-06T07:48:49.636Z,99793.02
2022-10-06T07:49:50.061Z,99790.92
2022-10-06T07:50:52.322Z,99788.86
2022-10-06T07:51:50.783Z,99783.46
2022-10-06T07:52:51.202Z,99783.36
2022-10-06T07:53:51.691Z,99778.73
2022-10-06T07:54:52.519Z,99777.9
2022-10-06T07:55:52.448Z,99773.8
2022-10-06T07:56:54.093Z,99772.12
2022-10-06T07:57:53.280Z,99770.59
2022-10-06T07:58:54.022Z,99772.86
2022-10-06T07:59:54.118Z,99772.56
2022-10-06T08:00:54.751Z,99772.92
2022-10-06T08:01:55.229Z,99773.8
2022-10-06T08:02:55.580Z,99771.59
2022-10-06T08:03:56.192Z,99770.92
2022-10-06T08:04:56.916Z,99766.39
2022-10-06T08:06:58.982Z,99775.66
2022-10-06T08:07:59.601Z,99772.69
2022-10-06T08:08:59.823Z,99772.85
2022-10-06T08:10:00.438Z,99770.08
2022-10-06T08:11:01.936Z,99764.48
2022-10-06T08:12:01.373Z,99766.58
2022-10-06T08:13:05.384Z,99765.07
2022-10-06T08:14:02.912Z,99760.38
2022-10-06T08:16:07.308Z,99763.64
2022-10-06T08:17:06.003Z,99762.71
2022-10-06T08:18:21.427Z,99760.44
2022-10-06T08:19:09.124Z,99766.44
2022-10-06T08:20:11.857Z,99764.53
2022-10-06T08:22:13.308Z,99762.73
2022-10-06T08:23:14.030Z,99767.03
2022-10-06T08:24:14.144Z,99761.64
2022-10-06T08:25:15.174Z,99763.33
2022-10-06T08:26:16.411Z,99766.52
2022-10-06T08:27:15.613Z,99762.85
2022-10-06T08:28:15.832Z,99765.02
2022-10-06T08:29:16.318Z,99769.12
2022-10-06T08:30:16.944Z,99765.92
2022-10-06T08:31:19.193Z,99764.05
2022-10-06T08:32:17.582Z,99769.47
2022-10-06T08:33:21.180Z,99765.38
2022-10-06T08:34:19.113Z,99765.56
2022-10-06T08:35:19.450Z,99769.17
2022-10-06T08:36:20.333Z,99769.65
2022-10-06T08:37:20.724Z,99767.67
2022-10-06T08:38:20.676Z,99770.12
2022-10-06T08:39:21.300Z,99774.08
2022-10-06T08:40:21.930Z,99771.45
2022-10-06T08:43:29.193Z,99770.56
2022-10-06T08:46:40.398Z,99768.52
2022-10-06T08:47:37.928Z,99769.66
2022-10-06T08:48:38.157Z,99766.93
2022-10-06T08:49:42.767Z,99770.83
2022-10-06T08:58:58.184Z,99763.33
2022-10-06T08:59:59.213Z,99761.13
2022-10-06T09:01:58.181Z,99757.94
2022-10-06T09:02:58.997Z,99755.93
2022-10-06T09:05:04.576Z,99761.12
2022-10-06T09:22:48.931Z,99729.65
2022-10-06T09:25:51.978Z,99727.04
2022-10-06T09:26:53.460Z,99726.5
2022-10-06T09:27:56.118Z,99721.23
2022-10-06T09:28:53.983Z,99727.75
2022-10-06T09:29:54.480Z,99725.12
2022-10-06T09:30:55.494Z,99721.91
2022-10-06T09:31:54.933Z,99726.16
2022-10-06T09:34:03.444Z,99723.41
2022-10-06T09:34:58.323Z,99722.56
2022-10-06T09:36:08.175Z,99720.34
2022-10-06T09:37:08.992Z,99715.92
2022-10-06T09:38:08.144Z,99718.23
2022-10-06T09:39:06.451Z,99718.53
2022-10-06T09:41:12.602Z,99719.12
2022-10-06T09:48:24.998Z,99708.36
2022-10-06T09:49:27.391Z,99709.11
2022-10-06T09:50:27.301Z,99706.61
2022-10-06T09:51:25.261Z,99706.84
2022-10-06T09:52:25.881Z,99700.4
2022-10-06T09:53:26.201Z,99694.72
2022-10-06T09:54:27.023Z,99696.73
2022-10-06T09:55:32.873Z,99703.53
2022-10-06T09:56:32.579Z,99705.42
2022-10-06T09:57:31.035Z,99704.73
2022-10-06T09:58:32.861Z,99710.58
2022-10-06T09:59:40.132Z,99711.88
2022-10-06T10:01:34.653Z,99709.58
2022-10-06T10:02:37.275Z,99709
2022-10-06T10:04:41.316Z,99714.25
2022-10-06T10:05:46.135Z,99719.96
2022-10-06T10:06:43.903Z,99721.2
2022-10-06T10:07:44.719Z,99716.16
2022-10-06T10:08:44.515Z,99720.59
2022-10-06T10:09:45.762Z,99715.62
2022-10-06T10:10:45.961Z,99710.52
2022-10-06T10:11:48.722Z,99715.47
2022-10-06T10:13:52.749Z,99714.53
2022-10-06T10:14:50.907Z,99719.76
2022-10-06T10:15:53.952Z,99717.36
2022-10-06T10:16:53.335Z,99714.73
2022-10-06T10:17:54.650Z,99713.25
2022-10-06T10:18:53.094Z,99716.63
2022-10-06T10:19:54.600Z,99714.57
2022-10-06T10:21:59.229Z,99712.35
2022-10-06T10:27:23.456Z,99710.64
2022-10-06T10:30:19.489Z,99715.17
2022-10-06T10:38:41.754Z,99717.66
2022-10-06T10:43:59.603Z,99717.05
2022-10-06T10:45:02.571Z,99717.3
2022-10-06T10:56:33.668Z,99728.3
2022-10-06T10:57:39.836Z,99746.09
2022-10-06T10:58:40.241Z,99731.12
2022-10-06T11:02:45.281Z,99732.98
2022-10-06T11:03:49.652Z,99734.73
2022-10-06T11:34:14.175Z,99739.38
2022-10-06T11:41:42.979Z,99731.3
2022-10-06T11:43:52.313Z,99733.38
2022-10-06T11:44:43.616Z,99740
2022-10-06T11:48:52.655Z,99742.86
2022-10-06T11:49:54.663Z,99736.09
2022-10-06T11:50:54.403Z,99739.09
2022-10-06T11:51:58.338Z,99742.44
2022-10-06T11:52:57.283Z,99747.05
2022-10-06T11:53:58.840Z,99735.44
2022-10-06T12:04:24.570Z,99752.24
2022-10-06T12:11:41.945Z,99763.86
2022-10-06T12:12:42.871Z,99765.12
2022-10-06T12:17:18.274Z,99765.84
2022-10-06T12:35:38.004Z,99764.22
2022-10-06T12:36:36.685Z,99769.45
2022-10-06T12:37:43.142Z,99764.06
2022-10-06T12:38:43.900Z,99764.09
2022-10-06T12:39:41.611Z,99773.12
2022-10-06T12:40:47.300Z,99771.38
2022-10-06T12:42:48.817Z,99775.64
2022-10-06T12:44:52.931Z,99765.95
2022-10-06T12:47:01.941Z,99768.06
2022-10-06T12:48:00.832Z,99772.33
2022-10-06T12:53:23.590Z,99769.05
2022-10-06T12:54:27.699Z,99775.28
2022-10-06T12:57:25.061Z,99784.55
2022-10-06T12:58:33.453Z,99781.3
2022-10-06T12:59:30.916Z,99781.36
2022-10-06T13:01:30.139Z,99781.03
2022-10-06T13:02:30.806Z,99778.23
2022-10-06T13:03:31.454Z,99785.23
2022-10-06T13:04:33.960Z,99777.9
2022-10-06T13:05:33.289Z,99781.36
2022-10-06T13:06:32.478Z,99773.98
2022-10-06T13:07:34.335Z,99769.34
2022-10-06T13:08:36.392Z,99768.66
2022-10-06T13:09:33.733Z,99774.91
2022-10-06T13:10:34.515Z,99772.14
2022-10-06T13:11:35.284Z,99778.27
2022-10-06T13:12:39.390Z,99780.34
2022-10-06T13:13:45.495Z,99781.61
2022-10-06T13:14:37.954Z,99776.2
2022-10-06T13:15:38.581Z,99779.59
2022-10-06T13:16:42.628Z,99779.62
2022-10-06T13:18:43.923Z,99772.83
2022-10-06T13:19:45.065Z,99776.7
2022-10-06T13:20:58.998Z,99775.94
2022-10-06T13:21:47.118Z,99780.61
2022-10-06T13:22:54.906Z,99781.27
2022-10-06T13:23:48.366Z,99775.44
2022-10-06T13:24:47.963Z,99774.88
2022-10-06T13:25:59.441Z,99769.28
2022-10-06T13:26:52.908Z,99772.66
2022-10-06T13:27:52.582Z,99768.93
2022-10-06T13:28:54.750Z,99770.02
2022-10-06T13:31:55.900Z,99770.94
2022-10-06T13:32:55.802Z,99770.44
2022-10-06T13:34:58.035Z,99773.3
2022-10-06T13:35:58.171Z,99777.17
2022-10-06T13:36:59.726Z,99772.85
2022-10-06T13:43:19.204Z,99783.82
2022-10-06T13:45:19.120Z,99789.72
2022-10-06T13:46:23.409Z,99789.67
2022-10-06T13:47:24.046Z,99792.82
2022-10-06T13:48:21.804Z,99789.92
2022-10-06T13:50:22.849Z,99797.22
2022-10-06T13:51:29.112Z,99796.95
2022-10-06T13:52:34.929Z,99797.44
2022-10-06T13:53:32.077Z,99794.56
2022-10-06T13:55:31.576Z,99800.27
2022-10-06T13:56:37.515Z,99795.82
2022-10-06T13:58:36.403Z,99794.52
2022-10-06T13:59:38.152Z,99799.71
2022-10-06T14:01:38.732Z,99798.48
2022-10-06T14:02:39.306Z,99795.75
2022-10-06T14:03:39.793Z,99797.05
2022-10-06T14:04:40.235Z,99799.25
2022-10-06T14:07:48.554Z,99810.98
2022-10-06T14:09:50.711Z,99805.99
2022-10-06T14:12:54.516Z,99812.7
2022-10-06T14:14:57.642Z,99818.46
2022-10-06T14:16:02.926Z,99816.9
2022-10-06T14:17:00.884Z,99823.59
2022-10-06T14:18:03.169Z,99823.52
2022-10-06T14:19:04.389Z,99824.88
2022-10-06T14:20:02.378Z,99824.58
2022-10-06T14:22:06.435Z,99830.69
2022-10-06T14:27:12.134Z,99839.58
2022-10-06T14:28:12.648Z,99843.61
2022-10-06T14:30:15.008Z,99854.13
2022-10-06T14:31:15.896Z,99862.95
2022-10-06T14:32:17.379Z,99864.36
2022-10-06T14:33:15.952Z,99870.69
2022-10-06T14:34:19.132Z,99873.31
2022-10-06T14:35:17.011Z,99876.3
2022-10-06T14:36:20.269Z,99880.31
2022-10-06T14:37:17.714Z,99880.7
2022-10-06T14:38:19.172Z,99885.77
2022-10-06T14:39:19.382Z,99894.7
2022-10-06T14:40:19.190Z,99897.37
2022-10-06T14:41:21.175Z,99898.63
2022-10-06T14:42:20.107Z,99900.83
2022-10-06T14:43:20.633Z,99904.81
2022-10-06T14:44:21.660Z,99901.69
2022-10-06T14:45:22.073Z,99906.44
2022-10-06T14:46:23.264Z,99911.16
2022-10-06T14:47:23.109Z,99917.85
2022-10-06T14:48:23.552Z,99916.7
2022-10-06T14:49:24.439Z,99914.84
2022-10-06T14:50:25.081Z,99914.47
2022-10-06T14:51:26.513Z,99922.02
2022-10-06T14:52:25.913Z,99920.92
2022-10-06T14:53:26.191Z,99912.16
2022-10-06T14:54:27.048Z,99903.67
2022-10-06T14:55:28.082Z,99915.61
2022-10-06T14:56:29.931Z,99922.86
2022-10-06T14:57:27.991Z,99924.11
2022-10-06T14:58:28.460Z,99926.11
2022-10-06T14:59:29.326Z,99923.47
2022-10-06T15:00:29.391Z,99909.64
2022-10-06T15:01:30.780Z,99933.34
2022-10-06T15:02:30.602Z,99931.12
2022-10-06T15:03:31.051Z,99955.05
2022-10-06T15:04:31.432Z,99934.66
2022-10-06T15:05:31.733Z,99941.73
2022-10-06T15:06:32.767Z,99934.28
2022-10-06T15:07:32.655Z,99940.97
2022-10-06T15:08:33.184Z,99933.36
2022-10-06T15:09:33.593Z,99946.44
2022-10-06T15:10:34.111Z,99935.68
2022-10-06T15:11:34.940Z,99951.42
2022-10-06T15:12:35.048Z,99943.82
2022-10-06T15:13:35.356Z,99943.83
2022-10-06T15:14:35.982Z,99952.72
2022-10-06T15:15:36.373Z,99955.63
2022-10-06T15:16:37.943Z,99958.68
2022-10-06T15:17:37.233Z,99955.7
2022-10-06T15:18:41.975Z,99965.7
2022-10-06T15:19:40.423Z,99967.23
2022-10-06T15:20:40.731Z,99973.02
2022-10-06T15:21:42.679Z,99971.65
2022-10-06T15:22:41.567Z,99979.16
2022-10-06T15:23:42.414Z,99974.24
2022-10-06T15:24:42.600Z,99985.26
2022-10-06T15:26:43.946Z,99987.95
2022-10-06T15:27:43.754Z,99991.55
2022-10-06T15:28:44.290Z,99987.75
2022-10-06T15:29:44.782Z,99994.61
2022-10-06T15:30:45.207Z,100001.06
2022-10-06T15:31:48.487Z,99992.91